createdAt,value
2018-03-23T00:02:06.733Z,80.93
2018-03-23T00:04:34.626Z,88.40
2018-03-23T00:07:02.082Z,82.37
2018-03-23T00:09:29.540Z,83.93
2018-03-23T00:11:57.443Z,81.33
2018-03-23T00:14:25.665Z,81.20
2018-03-23T00:16:55.576Z,85.33
2018-03-23T00:19:23.041Z,82.17
2018-03-23T00:21:50.490Z,89.60
2018-03-23T00:24:18.235Z,81.27
2018-03-23T00:26:45.683Z,85.70
2018-03-23T00:29:13.970Z,83.70
2018-03-23T00:31:41.431Z,91.43
2018-03-23T00:34:08.890Z,87.50
2018-03-23T00:36:36.341Z,93.83
2018-03-23T00:39:03.821Z,94.37
2018-03-23T00:41:31.832Z,96.37
2018-03-23T00:44:00.070Z,87.20
2018-03-23T00:46:28.133Z,97.10
2018-03-23T00:48:56.142Z,88.83
2018-03-23T00:51:24.915Z,93.23
2018-03-23T00:53:52.887Z,90.60
2018-03-23T00:56:20.369Z,98.20
2018-03-23T00:58:47.830Z,94.40
2018-03-23T01:01:15.286Z,97.17
2018-03-23T01:03:42.738Z,99.67
2018-03-23T01:06:10.983Z,101.67
2018-03-23T01:08:38.436Z,107.57
2018-03-23T01:11:05.889Z,102.60
2018-03-23T01:13:33.345Z,107.10
2018-03-23T01:16:00.814Z,105.40
2018-03-23T01:18:28.271Z,100.67
2018-03-23T01:20:55.726Z,102.37
2018-03-23T01:23:23.184Z,101.17
2018-03-23T01:25:50.642Z,107.27
2018-03-23T01:28:18.970Z,104.37
2018-03-23T01:30:46.425Z,111.43
2018-03-23T01:33:13.885Z,114.53
2018-03-23T01:35:41.772Z,112.30
2018-03-23T01:38:09.498Z,119.73
2018-03-23T01:40:36.960Z,113.67
2018-03-23T01:43:05.082Z,111.90
2018-03-23T01:45:32.537Z,116.13
2018-03-23T01:47:59.996Z,115.80
2018-03-23T01:50:27.454Z,104.53
2018-03-23T01:52:54.906Z,111.03
2018-03-23T01:55:22.881Z,110.00
2018-03-23T01:57:50.345Z,105.97
2018-03-23T02:00:18.576Z,115.13
2018-03-23T02:02:46.266Z,108.00
2018-03-23T02:05:13.835Z,100.47
2018-03-23T02:07:41.868Z,108.20
2018-03-23T02:10:09.330Z,100.50
2018-03-23T02:12:37.359Z,104.17
2018-03-23T02:15:04.817Z,108.00
2018-03-23T02:17:32.273Z,107.57
2018-03-23T02:19:59.732Z,110.00
2018-03-23T02:22:27.220Z,112.10
2018-03-23T02:24:54.684Z,102.87
2018-03-23T02:27:22.141Z,106.03
2018-03-23T02:29:49.609Z,108.60
2018-03-23T02:32:17.833Z,110.13
2018-03-23T02:34:45.311Z,113.97
2018-03-23T02:37:12.774Z,119.30
2018-03-23T02:39:40.815Z,116.20
2018-03-23T02:42:09.001Z,126.30
2018-03-23T02:44:36.484Z,115.50
2018-03-23T02:47:03.959Z,130.27
2018-03-23T02:49:31.824Z,122.07
2018-03-23T02:51:59.410Z,119.43
2018-03-23T02:54:27.642Z,120.97
2018-03-23T02:56:55.524Z,124.77
2018-03-23T02:59:22.986Z,111.87
2018-03-23T03:01:50.447Z,116.80
2018-03-23T03:04:17.910Z,116.53
2018-03-23T03:06:45.797Z,113.97
2018-03-23T03:09:14.039Z,111.27
2018-03-23T03:11:41.492Z,121.80
2018-03-23T03:14:10.838Z,120.77
2018-03-23T03:16:38.753Z,115.70
2018-03-23T03:19:06.645Z,124.53
2018-03-23T03:21:34.864Z,122.20
2018-03-23T03:24:02.333Z,135.93
2018-03-23T03:26:29.837Z,122.77
2018-03-23T03:28:57.261Z,129.73
2018-03-23T03:31:24.722Z,127.47
2018-03-23T03:33:52.661Z,122.30
2018-03-23T03:36:20.118Z,116.10
2018-03-23T03:38:47.676Z,124.97
2018-03-23T03:41:15.145Z,110.67
2018-03-23T03:43:42.600Z,119.53
2018-03-23T03:46:10.438Z,109.50
2018-03-23T03:48:38.776Z,125.50
2018-03-23T03:51:08.025Z,112.70
2018-03-23T03:53:35.488Z,111.13
2018-03-23T03:56:02.949Z,104.27
2018-03-23T03:58:31.066Z,118.50
2018-03-23T04:00:58.538Z,114.50
2018-03-23T04:03:26.762Z,115.87
2018-03-23T04:05:54.656Z,118.13
2018-03-23T04:08:22.125Z,120.23
2018-03-23T04:10:50.253Z,116.70
2018-03-23T04:13:17.705Z,124.30
2018-03-23T04:15:45.170Z,114.67
2018-03-23T04:18:12.624Z,117.40
2018-03-23T04:20:40.086Z,119.07
2018-03-23T04:23:07.549Z,110.47
2018-03-23T04:25:35.709Z,117.10
2018-03-23T04:28:03.173Z,109.80
2018-03-23T04:30:30.632Z,114.50
2018-03-23T04:32:58.098Z,121.10
2018-03-23T04:35:25.566Z,115.67
2018-03-23T04:37:53.215Z,124.13
2018-03-23T04:40:20.685Z,118.83
2018-03-23T04:42:48.757Z,119.87
2018-03-23T04:45:16.760Z,114.33
2018-03-23T04:47:44.923Z,121.57
2018-03-23T04:50:13.141Z,116.00
2018-03-23T04:52:40.598Z,117.57
2018-03-23T04:55:08.062Z,118.63
2018-03-23T04:57:35.521Z,122.23
2018-03-23T05:00:02.994Z,124.33
2018-03-23T05:02:30.449Z,116.70
2018-03-23T05:04:57.921Z,118.20
2018-03-23T05:07:26.141Z,126.43
2018-03-23T05:09:53.598Z,130.70
2018-03-23T05:12:21.064Z,120.97
2018-03-23T05:14:48.995Z,123.47
2018-03-23T05:17:17.214Z,120.30
2018-03-23T05:19:44.689Z,117.20
2018-03-23T05:22:13.553Z,122.73
2018-03-23T05:24:41.005Z,115.50
2018-03-23T05:27:08.465Z,108.43
2018-03-23T05:29:36.423Z,120.70
2018-03-23T05:32:03.893Z,115.13
2018-03-23T05:34:31.353Z,120.43
2018-03-23T05:36:59.239Z,117.17
2018-03-23T05:39:26.730Z,112.27
2018-03-23T05:41:54.166Z,127.37
2018-03-23T05:44:21.620Z,122.97
2018-03-23T05:46:49.078Z,124.83
2018-03-23T05:49:16.548Z,135.20
2018-03-23T05:51:45.110Z,117.73
2018-03-23T05:54:13.363Z,114.80
2018-03-23T05:56:40.816Z,122.20
2018-03-23T05:59:09.270Z,119.37
2018-03-23T06:01:36.756Z,119.63
2018-03-23T06:04:04.616Z,115.37
2018-03-23T06:06:32.144Z,123.53
2018-03-23T06:08:59.901Z,110.63
2018-03-23T06:11:27.362Z,108.63
2018-03-23T06:13:55.742Z,101.40
2018-03-23T06:16:23.813Z,121.90
2018-03-23T06:18:51.273Z,119.13
2018-03-23T06:21:18.749Z,121.60
2018-03-23T06:23:46.209Z,108.13
2018-03-23T06:26:13.666Z,110.10
2018-03-23T06:28:41.113Z,113.17
2018-03-23T06:31:11.161Z,109.30
2018-03-23T06:33:38.939Z,112.63
2018-03-23T06:36:06.766Z,100.93
2018-03-23T06:38:34.229Z,104.80
2018-03-23T06:41:02.787Z,99.87
2018-03-23T06:43:30.874Z,95.97
2018-03-23T06:45:58.321Z,96.50
2018-03-23T06:48:27.730Z,92.07
2018-03-23T06:50:56.031Z,90.73
2018-03-23T06:53:23.512Z,88.17
2018-03-23T06:55:50.968Z,96.43
2018-03-23T06:58:18.421Z,100.40
2018-03-23T07:00:48.289Z,100.90
2018-03-23T07:03:16.374Z,92.63
2018-03-23T07:05:43.847Z,87.77
2018-03-23T07:08:11.286Z,87.93
2018-03-23T07:10:38.750Z,93.07
2018-03-23T07:13:06.200Z,95.47
2018-03-23T07:15:33.682Z,92.43
2018-03-23T07:18:01.141Z,97.70
2018-03-23T07:20:28.585Z,95.23
2018-03-23T07:22:56.029Z,82.80
2018-03-23T07:25:23.498Z,90.03
2018-03-23T07:27:50.947Z,83.97
2018-03-23T07:30:18.401Z,84.13
2018-03-23T07:32:49.426Z,79.53
2018-03-23T07:35:16.886Z,83.90
2018-03-23T07:37:44.406Z,84.33
2018-03-23T07:40:11.841Z,80.07
2018-03-23T07:42:39.294Z,75.37
2018-03-23T07:45:06.742Z,72.57
2018-03-23T07:47:34.205Z,71.47
2018-03-23T07:50:01.655Z,73.33
2018-03-23T07:52:29.576Z,73.27
2018-03-23T07:54:57.613Z,66.57
2018-03-23T07:57:25.830Z,67.00
2018-03-23T07:59:53.289Z,65.97
2018-03-23T08:02:20.946Z,64.60
2018-03-23T08:04:48.486Z,59.67
2018-03-23T08:07:15.941Z,64.70
2018-03-23T08:09:43.432Z,64.33
2018-03-23T08:12:12.184Z,67.57
2018-03-23T08:14:39.656Z,67.30
2018-03-23T08:17:07.234Z,63.67
2018-03-23T08:19:34.691Z,64.57
2018-03-23T08:22:02.148Z,61.63
2018-03-23T08:24:29.594Z,63.40
2018-03-23T08:26:57.058Z,60.80
2018-03-23T08:29:24.502Z,70.17
2018-03-23T08:31:51.973Z,63.30
2018-03-23T08:34:19.435Z,68.67
2018-03-23T08:36:47.915Z,65.50
2018-03-23T08:39:16.347Z,62.53
2018-03-23T08:41:44.579Z,72.10
2018-03-23T08:44:12.076Z,78.10
2018-03-23T08:46:40.249Z,71.20
2018-03-23T08:49:08.462Z,75.10
2018-03-23T08:51:35.930Z,74.03
2018-03-23T08:54:03.913Z,73.43
2018-03-23T08:56:31.362Z,69.23
2018-03-23T08:58:58.822Z,74.80
2018-03-23T09:01:26.269Z,71.57
2018-03-23T09:03:53.726Z,79.20
2018-03-23T09:06:21.181Z,69.20
2018-03-23T09:08:48.633Z,67.47
2018-03-23T09:11:16.097Z,71.40
2018-03-23T09:13:43.551Z,65.07
2018-03-23T09:16:10.992Z,61.23
2018-03-23T09:18:38.453Z,63.60
2018-03-23T09:21:06.930Z,64.73
2018-03-23T09:23:34.806Z,61.07
2018-03-23T09:26:02.371Z,58.77
2018-03-23T09:28:29.912Z,63.33
2018-03-23T09:30:57.364Z,55.00
2018-03-23T09:33:24.820Z,54.40
2018-03-23T09:35:52.379Z,57.13
2018-03-23T09:38:19.826Z,54.43
2018-03-23T09:40:47.274Z,55.43
2018-03-23T09:43:15.494Z,58.73
2018-03-23T09:45:42.947Z,60.80
2018-03-23T09:48:10.403Z,59.30
2018-03-23T09:50:37.855Z,59.40
2018-03-23T09:53:05.296Z,57.67
2018-03-23T09:55:32.755Z,59.10
2018-03-23T09:58:00.206Z,57.33
2018-03-23T10:00:27.664Z,58.13
2018-03-23T10:02:55.100Z,51.50
2018-03-23T10:05:22.555Z,45.70
2018-03-23T10:07:50.773Z,47.97
2018-03-23T10:10:18.650Z,55.67
2018-03-23T10:12:46.098Z,47.93
2018-03-23T10:15:13.553Z,46.53
2018-03-23T10:17:41.826Z,46.00
2018-03-23T10:20:09.530Z,45.77
2018-03-23T10:22:36.978Z,46.90
2018-03-23T10:25:04.434Z,44.37
2018-03-23T10:27:31.873Z,45.87
2018-03-23T10:29:59.334Z,45.20
2018-03-23T10:32:26.782Z,43.93
2018-03-23T10:34:54.237Z,44.63
2018-03-23T10:37:21.683Z,37.90
2018-03-23T10:39:49.153Z,42.23
2018-03-23T10:42:16.601Z,40.77
2018-03-23T10:44:44.054Z,44.40
2018-03-23T10:47:12.362Z,41.30
2018-03-23T10:49:39.893Z,48.95
2018-03-23T10:52:10.285Z,42.53
2018-03-23T10:54:37.755Z,42.63
2018-03-23T10:57:05.217Z,45.83
2018-03-23T10:59:32.669Z,44.70
2018-03-23T11:02:05.792Z,41.47
2018-03-23T11:04:33.249Z,41.80
2018-03-23T11:07:00.716Z,40.67
2018-03-23T11:09:28.166Z,44.90
2018-03-23T11:11:55.643Z,43.13
2018-03-23T11:14:23.681Z,42.93
2018-03-23T11:16:51.137Z,47.13
2018-03-23T11:19:18.586Z,43.20
2018-03-23T11:21:46.065Z,41.07
2018-03-23T11:24:13.558Z,44.60
2018-03-23T11:26:42.151Z,39.33
2018-03-23T11:29:10.983Z,41.97
2018-03-23T11:31:38.437Z,38.20
2018-03-23T11:34:05.873Z,38.13
2018-03-23T11:36:33.350Z,36.13
2018-03-23T11:39:00.890Z,39.47
2018-03-23T11:41:28.346Z,38.17
2018-03-23T11:43:55.808Z,35.30
2018-03-23T11:46:23.260Z,31.57
2018-03-23T11:48:50.711Z,37.00
2018-03-23T11:51:18.168Z,32.17
2018-03-23T11:53:46.431Z,32.23
2018-03-23T11:56:13.880Z,35.03
2018-03-23T11:58:41.337Z,34.93
2018-03-23T12:01:09.550Z,36.67
2018-03-23T12:03:37.054Z,36.33
2018-03-23T12:06:05.877Z,36.43
2018-03-23T12:08:33.364Z,34.00
2018-03-23T12:11:00.864Z,34.10
2018-03-23T12:13:29.070Z,38.30
2018-03-23T12:15:56.526Z,34.20
2018-03-23T12:18:23.983Z,36.70
2018-03-23T12:20:51.441Z,34.67
2018-03-23T12:23:18.902Z,35.90
2018-03-23T12:25:46.362Z,32.20
2018-03-23T12:28:13.810Z,32.40
2018-03-23T12:30:41.263Z,31.23
2018-03-23T12:33:08.726Z,30.57
2018-03-23T12:35:36.181Z,30.40
2018-03-23T12:38:03.658Z,34.30
2018-03-23T12:40:31.101Z,31.30
2018-03-23T12:42:58.607Z,38.60
2018-03-23T12:45:26.839Z,34.83
2018-03-23T12:47:54.674Z,30.00
2018-03-23T12:50:22.963Z,32.63
2018-03-23T12:52:50.421Z,32.53
2018-03-23T12:55:17.874Z,30.97
2018-03-23T12:57:45.324Z,35.97
2018-03-23T13:00:13.099Z,35.25
2018-03-23T13:02:40.595Z,34.73
2018-03-23T13:05:10.526Z,28.63
2018-03-23T13:07:37.981Z,25.13
2018-03-23T13:10:05.445Z,36.67
2018-03-23T13:12:32.911Z,30.10
2018-03-23T13:15:01.131Z,33.37
2018-03-23T13:17:28.574Z,28.30
2018-03-23T13:19:56.041Z,28.43
2018-03-23T13:22:23.495Z,25.63
2018-03-23T13:24:51.518Z,25.73
2018-03-23T13:27:19.763Z,26.13
2018-03-23T13:29:47.264Z,27.90
2018-03-23T13:32:15.695Z,28.97
2018-03-23T13:34:43.148Z,27.90
2018-03-23T13:37:10.605Z,29.43
2018-03-23T13:39:38.069Z,28.73
2018-03-23T13:42:05.517Z,27.23
2018-03-23T13:44:33.018Z,32.73
2018-03-23T13:47:01.245Z,35.67
2018-03-23T13:49:29.316Z,36.57
2018-03-23T13:51:56.775Z,33.17
2018-03-23T13:54:24.247Z,35.10
2018-03-23T13:56:51.712Z,36.37
2018-03-23T13:59:24.844Z,34.23
2018-03-23T14:01:52.307Z,36.17
2018-03-23T14:04:20.138Z,34.10
2018-03-23T14:06:47.579Z,33.43
2018-03-23T14:09:15.038Z,37.17
2018-03-23T14:11:42.850Z,34.40
2018-03-23T14:14:10.311Z,34.10
2018-03-23T14:16:37.780Z,34.07
2018-03-23T14:19:05.654Z,35.17
2018-03-23T14:21:33.209Z,37.33
2018-03-23T14:24:00.663Z,38.83
2018-03-23T14:26:28.114Z,37.33
2018-03-23T14:28:55.691Z,38.07
2018-03-23T14:31:23.863Z,35.07
2018-03-23T14:33:51.570Z,37.27
2018-03-23T14:36:19.026Z,34.57
2018-03-23T14:38:46.829Z,37.60
2018-03-23T14:41:14.326Z,32.83
2018-03-23T14:43:41.752Z,34.70
2018-03-23T14:46:09.211Z,36.00
2018-03-23T14:48:36.697Z,33.40
2018-03-23T14:51:04.152Z,34.37
2018-03-23T14:53:31.631Z,32.60
2018-03-23T14:55:59.656Z,37.13
2018-03-23T14:58:27.102Z,34.73
2018-03-23T15:00:54.562Z,37.23
2018-03-23T15:03:22.055Z,32.83
2018-03-23T15:05:49.513Z,41.20
2018-03-23T15:08:16.980Z,38.33
2018-03-23T15:10:44.439Z,39.27
2018-03-23T15:13:11.894Z,37.83
2018-03-23T15:15:39.349Z,38.97
2018-03-23T15:18:06.823Z,41.90
2018-03-23T15:20:35.053Z,40.50
2018-03-23T15:23:02.532Z,39.20
2018-03-23T15:25:29.982Z,44.47
2018-03-23T15:27:57.430Z,39.10
2018-03-23T15:30:24.904Z,41.07
2018-03-23T15:32:52.362Z,42.13
2018-03-23T15:35:19.810Z,43.43
2018-03-23T15:37:47.272Z,38.83
2018-03-23T15:40:14.721Z,37.97
2018-03-23T15:42:42.178Z,43.63
2018-03-23T15:45:09.654Z,45.53
2018-03-23T15:47:37.878Z,42.83
2018-03-23T15:50:05.325Z,42.97
2018-03-23T15:52:34.116Z,39.60
2018-03-23T15:55:01.586Z,40.40
2018-03-23T15:57:29.045Z,40.07
2018-03-23T15:59:56.503Z,43.20
2018-03-23T16:02:23.969Z,43.20
2018-03-23T16:04:51.484Z,37.03
2018-03-23T16:07:18.884Z,38.73
2018-03-23T16:09:46.897Z,42.37
2018-03-23T16:12:14.413Z,41.03
2018-03-23T16:14:41.877Z,37.73
2018-03-23T16:17:09.440Z,40.83
2018-03-23T16:19:36.906Z,37.87
2018-03-23T16:22:04.366Z,42.37
2018-03-23T16:24:31.819Z,42.90
2018-03-23T16:26:59.276Z,35.20
2018-03-23T16:29:27.391Z,39.13
2018-03-23T16:31:55.028Z,38.80
2018-03-23T16:34:23.375Z,40.07
2018-03-23T16:36:50.847Z,44.57
2018-03-23T16:39:18.310Z,38.50
2018-03-23T16:41:46.550Z,39.77
2018-03-23T16:44:14.004Z,35.87
2018-03-23T16:46:41.466Z,38.03
2018-03-23T16:49:08.938Z,38.90
2018-03-23T16:51:36.394Z,40.63
2018-03-23T16:54:03.858Z,38.37
2018-03-23T16:56:31.306Z,38.47
2018-03-23T16:58:59.734Z,41.87
2018-03-23T17:01:27.196Z,38.17
2018-03-23T17:03:54.683Z,40.50
2018-03-23T17:06:22.168Z,42.60
2018-03-23T17:08:49.617Z,40.00
2018-03-23T17:11:17.073Z,42.03
2018-03-23T17:13:44.533Z,42.20
2018-03-23T17:16:11.991Z,40.33
2018-03-23T17:18:39.440Z,41.67
2018-03-23T17:21:06.915Z,39.63
2018-03-23T17:23:34.362Z,43.37
2018-03-23T17:26:01.820Z,42.33
2018-03-23T17:28:29.282Z,41.97
2018-03-23T17:30:57.504Z,42.07
2018-03-23T17:33:26.252Z,42.00
2018-03-23T17:35:54.743Z,42.50
2018-03-23T17:38:22.958Z,40.60
2018-03-23T17:40:50.425Z,39.07
2018-03-23T17:43:17.881Z,41.50
2018-03-23T17:45:45.334Z,40.37
2018-03-23T17:48:12.796Z,42.33
2018-03-23T17:50:40.249Z,40.53
2018-03-23T17:53:07.710Z,39.40
2018-03-23T17:55:35.770Z,37.80
2018-03-23T17:58:05.131Z,39.83
2018-03-23T18:00:33.343Z,38.20
2018-03-23T18:03:00.789Z,38.67
2018-03-23T18:05:29.058Z,37.00
2018-03-23T18:07:56.737Z,39.57
2018-03-23T18:10:24.794Z,40.97
2018-03-23T18:13:09.569Z,38.77
2018-03-23T18:15:37.368Z,39.37
2018-03-23T18:18:04.836Z,40.87
2018-03-23T18:20:32.281Z,41.87
2018-03-23T18:23:00.714Z,42.00
2018-03-23T18:25:28.257Z,40.47
2018-03-23T18:27:55.666Z,45.13
2018-03-23T18:30:23.545Z,42.97
2018-03-23T18:32:51.457Z,41.07
2018-03-23T18:35:18.932Z,39.80
2018-03-23T18:37:46.404Z,42.00
2018-03-23T18:40:14.429Z,44.00
2018-03-23T18:42:42.001Z,39.17
2018-03-23T18:45:09.450Z,44.73
2018-03-23T18:47:36.912Z,43.37
2018-03-23T18:50:04.370Z,39.20
2018-03-23T18:52:31.833Z,44.70
2018-03-23T18:54:59.318Z,41.23
2018-03-23T18:57:26.770Z,45.87
2018-03-23T18:59:54.226Z,45.10
2018-03-23T19:02:21.695Z,44.80
2018-03-23T19:04:49.152Z,45.63
2018-03-23T19:07:16.619Z,46.13
2018-03-23T19:09:44.658Z,49.50
2018-03-23T19:12:12.133Z,52.40
2018-03-23T19:14:39.641Z,53.63
2018-03-23T19:17:07.103Z,48.63
2018-03-23T19:19:34.589Z,46.30
2018-03-23T19:22:02.046Z,47.37
2018-03-23T19:24:30.272Z,48.93
2018-03-23T19:26:58.489Z,50.40
2018-03-23T19:29:25.945Z,46.43
2018-03-23T19:31:53.851Z,48.37
2018-03-23T19:34:21.613Z,46.43
2018-03-23T19:36:49.073Z,47.93
2018-03-23T19:39:17.233Z,47.37
2018-03-23T19:41:45.166Z,49.13
2018-03-23T19:44:12.622Z,49.43
2018-03-23T19:46:40.825Z,43.97
2018-03-23T19:49:08.274Z,41.20
2018-03-23T19:51:35.730Z,47.40
2018-03-23T19:54:03.640Z,42.63
2018-03-23T19:56:31.899Z,41.30
2018-03-23T19:58:59.361Z,44.87
2018-03-23T20:01:27.730Z,44.83
2018-03-23T20:03:55.199Z,45.77
2018-03-23T20:06:23.210Z,44.33
2018-03-23T20:08:50.667Z,44.80
2018-03-23T20:11:18.123Z,41.40
2018-03-23T20:13:51.420Z,45.13
2018-03-23T20:16:18.867Z,42.50
2018-03-23T20:18:46.326Z,51.50
2018-03-23T20:21:14.174Z,53.40
2018-03-23T20:23:41.631Z,49.83
2018-03-23T20:26:09.402Z,49.83
2018-03-23T20:28:41.462Z,47.87
2018-03-23T20:31:08.920Z,48.10
2018-03-23T20:33:36.365Z,50.27
2018-03-23T20:36:04.630Z,51.87
2018-03-23T20:38:32.083Z,57.50
2018-03-23T20:41:00.157Z,59.00
2018-03-23T20:43:28.395Z,61.37
2018-03-23T20:45:56.389Z,63.63
2018-03-23T20:48:24.989Z,59.50
2018-03-23T20:50:53.206Z,54.60
2018-03-23T20:53:20.932Z,53.90
2018-03-23T20:55:49.142Z,50.57
2018-03-23T20:58:16.945Z,52.67
2018-03-23T21:00:44.402Z,44.10
2018-03-23T21:03:11.862Z,48.87
2018-03-23T21:05:39.330Z,40.40
2018-03-23T21:08:07.300Z,39.03
2018-03-23T21:10:35.525Z,43.53
2018-03-23T21:13:02.979Z,45.37
2018-03-23T21:15:30.442Z,41.03
2018-03-23T21:17:57.881Z,45.23
2018-03-23T21:20:25.344Z,41.00
2018-03-23T21:22:52.801Z,49.80
2018-03-23T21:25:20.575Z,50.53
2018-03-23T21:27:48.421Z,55.67
2018-03-23T21:30:15.870Z,76.93
2018-03-23T21:32:44.199Z,73.37
2018-03-23T21:35:11.663Z,101.33
2018-03-23T21:37:39.126Z,152.23
2018-03-23T21:40:06.579Z,175.47
2018-03-23T21:42:34.050Z,119.60
2018-03-23T21:45:02.272Z,81.90
2018-03-23T21:47:30.261Z,82.10
2018-03-23T21:49:57.720Z,66.53
2018-03-23T21:52:25.930Z,71.23
2018-03-23T21:54:54.158Z,70.83
2018-03-23T21:57:21.626Z,65.60
2018-03-23T21:59:49.079Z,65.00
2018-03-23T22:02:16.549Z,78.50
2018-03-23T22:04:44.031Z,88.50
2018-03-23T22:07:12.259Z,121.80
2018-03-23T22:09:39.721Z,102.97
2018-03-23T22:12:07.168Z,116.47
2018-03-23T22:14:34.631Z,105.73
2018-03-23T22:17:02.509Z,125.90
2018-03-23T22:19:29.962Z,132.17
2018-03-23T22:21:57.422Z,138.20
2018-03-23T22:24:31.333Z,122.23
2018-03-23T22:26:59.173Z,109.63
2018-03-23T22:29:27.045Z,126.53
2018-03-23T22:31:55.722Z,97.73
2018-03-23T22:34:23.181Z,99.37
2018-03-23T22:36:50.631Z,91.50
2018-03-23T22:39:18.082Z,86.30
2018-03-23T22:41:45.538Z,71.87
2018-03-23T22:44:13.237Z,69.30
2018-03-23T22:46:40.699Z,78.00
2018-03-23T22:49:08.165Z,84.43
2018-03-23T22:51:35.622Z,77.13
2018-03-23T22:54:03.345Z,75.97
2018-03-23T22:56:30.792Z,73.33
2018-03-23T22:59:00.840Z,89.10
2018-03-23T23:01:28.300Z,78.27
2018-03-23T23:03:55.761Z,83.83
2018-03-23T23:06:23.221Z,74.63
2018-03-23T23:08:51.141Z,79.50
2018-03-23T23:11:18.597Z,74.63
2018-03-23T23:13:47.122Z,82.17
2018-03-23T23:16:14.578Z,73.83
2018-03-23T23:18:42.035Z,80.23
2018-03-23T23:21:10.821Z,73.50
2018-03-23T23:23:40.212Z,89.80
2018-03-23T23:26:08.106Z,124.33
2018-03-23T23:28:35.758Z,133.67
2018-03-23T23:31:04.234Z,122.40
2018-03-23T23:33:32.134Z,121.90
2018-03-23T23:36:00.357Z,95.73
2018-03-23T23:38:27.833Z,95.10
2018-03-23T23:40:56.166Z,94.10
2018-03-23T23:43:23.851Z,100.17
2018-03-23T23:45:51.731Z,105.57
2018-03-23T23:48:19.191Z,86.20
2018-03-23T23:50:46.641Z,89.03
2018-03-23T23:53:14.094Z,93.87
2018-03-23T23:55:41.541Z,83.10
2018-03-23T23:58:08.999Z,85.10
